sensor_id;sensor_type;location;lat;lon;timestamp;P1;durP1;ratioP1;P2;durP2;ratioP2
72201;SDS011;60105;54.956;73.412;2023-03-31T00:02:17;11.35;;;4.70;;
72201;SDS011;60105;54.956;73.412;2023-03-31T00:05:21;13.67;;;5.03;;
72201;SDS011;60105;54.956;73.412;2023-03-31T00:08:25;9.38;;;4.63;;
72201;SDS011;60105;54.956;73.412;2023-03-31T00:11:29;12.60;;;4.60;;
72201;SDS011;60105;54.956;73.412;2023-03-31T00:14:31;10.15;;;5.63;;
72201;SDS011;60105;54.956;73.412;2023-03-31T00:17:32;11.23;;;5.30;;
72201;SDS011;60105;54.956;73.412;2023-03-31T00:20:33;15.30;;;5.07;;
72201;SDS011;60105;54.956;73.412;2023-03-31T00:26:55;10.65;;;5.32;;
72201;SDS011;60105;54.956;73.412;2023-03-31T00:29:56;20.63;;;6.63;;
72201;SDS011;60105;54.956;73.412;2023-03-31T00:32:59;15.80;;;7.15;;
72201;SDS011;60105;54.956;73.412;2023-03-31T00:36:00;20.23;;;7.00;;
72201;SDS011;60105;54.956;73.412;2023-03-31T00:39:16;13.43;;;6.78;;
72201;SDS011;60105;54.956;73.412;2023-03-31T00:42:23;16.23;;;7.63;;
72201;SDS011;60105;54.956;73.412;2023-03-31T00:45:26;22.52;;;6.97;;
72201;SDS011;60105;54.956;73.412;2023-03-31T00:52:03;17.48;;;7.45;;
72201;SDS011;60105;54.956;73.412;2023-03-31T00:55:22;19.87;;;7.80;;
72201;SDS011;60105;54.956;73.412;2023-03-31T00:58:54;16.95;;;5.35;;
72201;SDS011;60105;54.956;73.412;2023-03-31T01:02:00;27.15;;;8.45;;
72201;SDS011;60105;54.956;73.412;2023-03-31T01:05:02;16.48;;;7.57;;
72201;SDS011;60105;54.956;73.412;2023-03-31T01:08:04;36.50;;;8.57;;
72201;SDS011;60105;54.956;73.412;2023-03-31T01:11:12;19.73;;;7.80;;
72201;SDS011;60105;54.956;73.412;2023-03-31T01:14:16;22.13;;;6.70;;
72201;SDS011;60105;54.956;73.412;2023-03-31T01:17:28;24.95;;;7.45;;
72201;SDS011;60105;54.956;73.412;2023-03-31T01:34:17;24.83;;;8.70;;
72201;SDS011;60105;54.956;73.412;2023-03-31T01:48:58;24.27;;;8.10;;
72201;SDS011;60105;54.956;73.412;2023-03-31T01:59:38;25.65;;;5.40;;
72201;SDS011;60105;54.956;73.412;2023-03-31T02:06:06;20.70;;;5.22;;
72201;SDS011;60105;54.956;73.412;2023-03-31T02:09:14;17.52;;;4.90;;
72201;SDS011;60105;54.956;73.412;2023-03-31T02:12:18;13.50;;;5.05;;
72201;SDS011;60105;54.956;73.412;2023-03-31T02:15:24;13.13;;;4.57;;
72201;SDS011;60105;54.956;73.412;2023-03-31T02:18:54;17.25;;;5.50;;
72201;SDS011;60105;54.956;73.412;2023-03-31T02:22:02;14.32;;;6.13;;
72201;SDS011;60105;54.956;73.412;2023-03-31T02:25:07;9.80;;;5.20;;
72201;SDS011;60105;54.956;73.412;2023-03-31T02:28:53;10.95;;;4.93;;
72201;SDS011;60105;54.956;73.412;2023-03-31T02:35:12;9.53;;;5.23;;
72201;SDS011;60105;54.956;73.412;2023-03-31T02:38:21;14.13;;;4.15;;
72201;SDS011;60105;54.956;73.412;2023-03-31T02:41:23;9.48;;;4.22;;
72201;SDS011;60105;54.956;73.412;2023-03-31T02:44:24;11.63;;;4.30;;
72201;SDS011;60105;54.956;73.412;2023-03-31T02:47:26;6.05;;;3.70;;
72201;SDS011;60105;54.956;73.412;2023-03-31T02:50:29;17.30;;;6.80;;
72201;SDS011;60105;54.956;73.412;2023-03-31T03:00:31;4.95;;;2.97;;
72201;SDS011;60105;54.956;73.412;2023-03-31T03:10:44;7.57;;;3.58;;
72201;SDS011;60105;54.956;73.412;2023-03-31T03:14:02;8.37;;;3.10;;
72201;SDS011;60105;54.956;73.412;2023-03-31T03:17:25;7.55;;;3.50;;
72201;SDS011;60105;54.956;73.412;2023-03-31T03:20:33;8.30;;;3.97;;
72201;SDS011;60105;54.956;73.412;2023-03-31T03:26:54;8.38;;;3.38;;
72201;SDS011;60105;54.956;73.412;2023-03-31T03:29:56;6.90;;;3.70;;
72201;SDS011;60105;54.956;73.412;2023-03-31T03:33:07;4.82;;;2.65;;
72201;SDS011;60105;54.956;73.412;2023-03-31T03:36:09;7.63;;;3.42;;
72201;SDS011;60105;54.956;73.412;2023-03-31T03:39:11;8.17;;;3.07;;
72201;SDS011;60105;54.956;73.412;2023-03-31T03:42:17;16.13;;;4.90;;
72201;SDS011;60105;54.956;73.412;2023-03-31T03:45:18;20.70;;;4.07;;
72201;SDS011;60105;54.956;73.412;2023-03-31T03:48:53;12.77;;;3.75;;
72201;SDS011;60105;54.956;73.412;2023-03-31T03:51:55;15.80;;;5.47;;
72201;SDS011;60105;54.956;73.412;2023-03-31T03:54:57;14.47;;;3.93;;
72201;SDS011;60105;54.956;73.412;2023-03-31T03:57:58;17.63;;;4.57;;
72201;SDS011;60105;54.956;73.412;2023-03-31T04:01:11;14.93;;;3.83;;
72201;SDS011;60105;54.956;73.412;2023-03-31T04:04:12;17.48;;;4.43;;
72201;SDS011;60105;54.956;73.412;2023-03-31T04:07:13;14.75;;;4.82;;
72201;SDS011;60105;54.956;73.412;2023-03-31T04:10:14;14.23;;;4.75;;
72201;SDS011;60105;54.956;73.412;2023-03-31T04:13:53;15.07;;;5.40;;
72201;SDS011;60105;54.956;73.412;2023-03-31T04:16:54;15.35;;;4.57;;
72201;SDS011;60105;54.956;73.412;2023-03-31T04:19:58;26.38;;;5.40;;
72201;SDS011;60105;54.956;73.412;2023-03-31T04:23:05;27.87;;;5.37;;
72201;SDS011;60105;54.956;73.412;2023-03-31T04:26:09;14.77;;;4.50;;
72201;SDS011;60105;54.956;73.412;2023-03-31T04:29:11;18.83;;;5.13;;
72201;SDS011;60105;54.956;73.412;2023-03-31T04:32:16;22.10;;;5.28;;
72201;SDS011;60105;54.956;73.412;2023-03-31T04:35:21;22.77;;;4.82;;
72201;SDS011;60105;54.956;73.412;2023-03-31T04:38:24;9.97;;;3.83;;
72201;SDS011;60105;54.956;73.412;2023-03-31T04:41:33;23.73;;;5.13;;
72201;SDS011;60105;54.956;73.412;2023-03-31T04:44:34;19.30;;;4.15;;
72201;SDS011;60105;54.956;73.412;2023-03-31T04:47:35;22.25;;;5.22;;
72201;SDS011;60105;54.956;73.412;2023-03-31T04:50:37;24.95;;;6.30;;
72201;SDS011;60105;54.956;73.412;2023-03-31T04:56:54;24.50;;;5.13;;
72201;SDS011;60105;54.956;73.412;2023-03-31T04:59:56;22.63;;;5.20;;
72201;SDS011;60105;54.956;73.412;2023-03-31T05:03:07;28.17;;;6.35;;
72201;SDS011;60105;54.956;73.412;2023-03-31T05:06:10;33.33;;;6.93;;
72201;SDS011;60105;54.956;73.412;2023-03-31T05:09:11;25.38;;;6.10;;
72201;SDS011;60105;54.956;73.412;2023-03-31T05:12:12;17.70;;;5.57;;
72201;SDS011;60105;54.956;73.412;2023-03-31T05:15:14;33.67;;;6.45;;
72201;SDS011;60105;54.956;73.412;2023-03-31T05:18:53;20.38;;;5.57;;
72201;SDS011;60105;54.956;73.412;2023-03-31T05:22:04;11.47;;;3.70;;
72201;SDS011;60105;54.956;73.412;2023-03-31T05:25:06;24.60;;;3.63;;
72201;SDS011;60105;54.956;73.412;2023-03-31T05:28:53;8.29;;;3.51;;
72201;SDS011;60105;54.956;73.412;2023-03-31T05:31:54;18.92;;;4.10;;
72201;SDS011;60105;54.956;73.412;2023-03-31T05:34:55;17.35;;;4.32;;
72201;SDS011;60105;54.956;73.412;2023-03-31T05:37:57;10.38;;;2.88;;
72201;SDS011;60105;54.956;73.412;2023-03-31T05:41:08;15.85;;;3.72;;
72201;SDS011;60105;54.956;73.412;2023-03-31T05:44:10;12.75;;;3.58;;
72201;SDS011;60105;54.956;73.412;2023-03-31T05:47:12;10.67;;;4.40;;
72201;SDS011;60105;54.956;73.412;2023-03-31T05:50:13;21.27;;;4.45;;
72201;SDS011;60105;54.956;73.412;2023-03-31T05:53:53;15.32;;;3.63;;
72201;SDS011;60105;54.956;73.412;2023-03-31T05:56:59;15.82;;;4.57;;
72201;SDS011;60105;54.956;73.412;2023-03-31T06:00:00;12.83;;;4.40;;
72201;SDS011;60105;54.956;73.412;2023-03-31T06:03:05;20.65;;;4.38;;
72201;SDS011;60105;54.956;73.412;2023-03-31T06:06:14;18.40;;;4.20;;
72201;SDS011;60105;54.956;73.412;2023-03-31T06:09:23;20.75;;;5.25;;
72201;SDS011;60105;54.956;73.412;2023-03-31T06:12:31;16.80;;;4.63;;
72201;SDS011;60105;54.956;73.412;2023-03-31T06:15:32;24.00;;;4.47;;
72201;SDS011;60105;54.956;73.412;2023-03-31T06:21:55;14.83;;;3.83;;
72201;SDS011;60105;54.956;73.412;2023-03-31T06:24:56;18.02;;;3.75;;
72201;SDS011;60105;54.956;73.412;2023-03-31T06:27:58;16.43;;;4.47;;
72201;SDS011;60105;54.956;73.412;2023-03-31T06:31:09;23.87;;;4.60;;
72201;SDS011;60105;54.956;73.412;2023-03-31T06:34:17;10.95;;;3.63;;
72201;SDS011;60105;54.956;73.412;2023-03-31T06:37:18;11.27;;;4.00;;
72201;SDS011;60105;54.956;73.412;2023-03-31T06:40:20;9.60;;;3.47;;
72201;SDS011;60105;54.956;73.412;2023-03-31T06:43:53;12.98;;;3.63;;
72201;SDS011;60105;54.956;73.412;2023-03-31T06:46:55;14.00;;;4.90;;
72201;SDS011;60105;54.956;73.412;2023-03-31T06:49:56;10.73;;;3.90;;
72201;SDS011;60105;54.956;73.412;2023-03-31T06:53:07;8.93;;;3.88;;
72201;SDS011;60105;54.956;73.412;2023-03-31T06:56:09;10.18;;;3.90;;
72201;SDS011;60105;54.956;73.412;2023-03-31T06:59:10;6.50;;;3.10;;
72201;SDS011;60105;54.956;73.412;2023-03-31T07:02:12;9.00;;;3.63;;
72201;SDS011;60105;54.956;73.412;2023-03-31T07:05:13;9.13;;;3.67;;
72201;SDS011;60105;54.956;73.412;2023-03-31T07:08:21;9.70;;;3.15;;
72201;SDS011;60105;54.956;73.412;2023-03-31T07:11:23;14.90;;;4.28;;
72201;SDS011;60105;54.956;73.412;2023-03-31T07:14:24;8.43;;;3.22;;
72201;SDS011;60105;54.956;73.412;2023-03-31T07:17:26;12.40;;;4.73;;
72201;SDS011;60105;54.956;73.412;2023-03-31T07:20:28;14.93;;;4.03;;
72201;SDS011;60105;54.956;73.412;2023-03-31T07:26:54;12.07;;;3.90;;
72201;SDS011;60105;54.956;73.412;2023-03-31T07:29:55;14.63;;;5.05;;
72201;SDS011;60105;54.956;73.412;2023-03-31T07:32:57;15.07;;;4.80;;
72201;SDS011;60105;54.956;73.412;2023-03-31T07:35:58;16.90;;;4.67;;
72201;SDS011;60105;54.956;73.412;2023-03-31T07:39:15;13.10;;;5.72;;
72201;SDS011;60105;54.956;73.412;2023-03-31T07:42:16;14.13;;;5.67;;
72201;SDS011;60105;54.956;73.412;2023-03-31T07:45:19;13.23;;;4.78;;
72201;SDS011;60105;54.956;73.412;2023-03-31T07:51:59;17.55;;;4.25;;
72201;SDS011;60105;54.956;73.412;2023-03-31T07:55:01;10.60;;;4.30;;
72201;SDS011;60105;54.956;73.412;2023-03-31T07:58:53;9.66;;;4.44;;
72201;SDS011;60105;54.956;73.412;2023-03-31T08:02:05;12.60;;;4.30;;
72201;SDS011;60105;54.956;73.412;2023-03-31T08:05:07;12.20;;;4.65;;
72201;SDS011;60105;54.956;73.412;2023-03-31T08:08:21;17.98;;;4.57;;
72201;SDS011;60105;54.956;73.412;2023-03-31T08:11:23;12.45;;;4.22;;
72201;SDS011;60105;54.956;73.412;2023-03-31T08:14:31;9.40;;;4.60;;
72201;SDS011;60105;54.956;73.412;2023-03-31T08:17:43;12.75;;;4.53;;
72201;SDS011;60105;54.956;73.412;2023-03-31T08:20:44;10.38;;;4.30;;
72201;SDS011;60105;54.956;73.412;2023-03-31T08:26:54;8.43;;;3.95;;
72201;SDS011;60105;54.956;73.412;2023-03-31T08:29:56;10.80;;;4.00;;
72201;SDS011;60105;54.956;73.412;2023-03-31T08:32:57;8.15;;;3.92;;
72201;SDS011;60105;54.956;73.412;2023-03-31T08:36:07;10.57;;;4.38;;
72201;SDS011;60105;54.956;73.412;2023-03-31T08:39:10;13.33;;;5.00;;
72201;SDS011;60105;54.956;73.412;2023-03-31T08:42:14;8.73;;;4.15;;
72201;SDS011;60105;54.956;73.412;2023-03-31T08:45:29;11.50;;;4.10;;
72201;SDS011;60105;54.956;73.412;2023-03-31T08:51:57;8.55;;;3.35;;
72201;SDS011;60105;54.956;73.412;2023-03-31T08:55:06;5.32;;;3.60;;
72201;SDS011;60105;54.956;73.412;2023-03-31T09:01:49;7.35;;;4.13;;
72201;SDS011;60105;54.956;73.412;2023-03-31T09:05:04;9.53;;;4.23;;
72201;SDS011;60105;54.956;73.412;2023-03-31T09:08:30;10.55;;;4.70;;
72201;SDS011;60105;54.956;73.412;2023-03-31T09:11:39;11.07;;;4.25;;
72201;SDS011;60105;54.956;73.412;2023-03-31T09:14:59;10.40;;;4.50;;
72201;SDS011;60105;54.956;73.412;2023-03-31T09:18:03;7.65;;;4.43;;
72201;SDS011;60105;54.956;73.412;2023-03-31T09:24:22;17.50;;;4.83;;
72201;SDS011;60105;54.956;73.412;2023-03-31T09:27:27;13.07;;;4.60;;
72201;SDS011;60105;54.956;73.412;2023-03-31T09:30:33;16.37;;;4.77;;
72201;SDS011;60105;54.956;73.412;2023-03-31T09:36:56;17.85;;;4.88;;
72201;SDS011;60105;54.956;73.412;2023-03-31T09:40:02;8.55;;;4.13;;
72201;SDS011;60105;54.956;73.412;2023-03-31T09:43:12;9.00;;;4.15;;
72201;SDS011;60105;54.956;73.412;2023-03-31T09:46:29;9.18;;;3.75;;
72201;SDS011;60105;54.956;73.412;2023-03-31T09:49:34;10.10;;;3.83;;
72201;SDS011;60105;54.956;73.412;2023-03-31T09:52:38;7.47;;;4.00;;
72201;SDS011;60105;54.956;73.412;2023-03-31T09:55:53;11.07;;;3.83;;
72201;SDS011;60105;54.956;73.412;2023-03-31T09:59:01;6.50;;;3.37;;
72201;SDS011;60105;54.956;73.412;2023-03-31T10:02:05;6.93;;;3.63;;
72201;SDS011;60105;54.956;73.412;2023-03-31T10:05:39;12.73;;;3.65;;
72201;SDS011;60105;54.956;73.412;2023-03-31T10:08:50;6.65;;;4.07;;
72201;SDS011;60105;54.956;73.412;2023-03-31T10:15:19;6.00;;;3.35;;
72201;SDS011;60105;54.956;73.412;2023-03-31T10:25:12;10.50;;;4.13;;
72201;SDS011;60105;54.956;73.412;2023-03-31T10:28:52;17.88;;;4.80;;
72201;SDS011;60105;54.956;73.412;2023-03-31T10:31:54;17.02;;;5.28;;
72201;SDS011;60105;54.956;73.412;2023-03-31T10:35:06;9.30;;;4.30;;
72201;SDS011;60105;54.956;73.412;2023-03-31T10:38:25;8.38;;;5.07;;
72201;SDS011;60105;54.956;73.412;2023-03-31T10:41:29;22.17;;;5.53;;
72201;SDS011;60105;54.956;73.412;2023-03-31T10:44:32;14.23;;;4.90;;
72201;SDS011;60105;54.956;73.412;2023-03-31T10:47:47;11.27;;;4.93;;
72201;SDS011;60105;54.956;73.412;2023-03-31T10:50:49;8.63;;;3.85;;
72201;SDS011;60105;54.956;73.412;2023-03-31T10:56:57;8.57;;;4.68;;
72201;SDS011;60105;54.956;73.412;2023-03-31T11:04:08;10.69;;;5.10;;
72201;SDS011;60105;54.956;73.412;2023-03-31T11:07:53;12.20;;;5.23;;
72201;SDS011;60105;54.956;73.412;2023-03-31T11:17:41;10.45;;;4.55;;
72201;SDS011;60105;54.956;73.412;2023-03-31T11:21:09;11.52;;;5.47;;
72201;SDS011;60105;54.956;73.412;2023-03-31T11:24:20;9.37;;;4.10;;
72201;SDS011;60105;54.956;73.412;2023-03-31T11:37:19;12.53;;;4.93;;
72201;SDS011;60105;54.956;73.412;2023-03-31T11:40:55;16.88;;;4.70;;
72201;SDS011;60105;54.956;73.412;2023-03-31T11:44:13;12.07;;;4.73;;
72201;SDS011;60105;54.956;73.412;2023-03-31T11:47:18;10.95;;;4.40;;
72201;SDS011;60105;54.956;73.412;2023-03-31T11:50:23;9.27;;;4.35;;
72201;SDS011;60105;54.956;73.412;2023-03-31T11:56:55;11.70;;;3.80;;
72201;SDS011;60105;54.956;73.412;2023-03-31T12:04:10;11.63;;;5.30;;
72201;SDS011;60105;54.956;73.412;2023-03-31T12:07:53;14.97;;;4.67;;
72201;SDS011;60105;54.956;73.412;2023-03-31T12:11:28;15.73;;;4.97;;
72201;SDS011;60105;54.956;73.412;2023-03-31T12:22:03;11.10;;;4.70;;
72201;SDS011;60105;54.956;73.412;2023-03-31T12:25:19;12.93;;;4.87;;
72201;SDS011;60105;54.956;73.412;2023-03-31T12:28:54;12.40;;;3.75;;
72201;SDS011;60105;54.956;73.412;2023-03-31T12:32:11;14.80;;;5.13;;
72201;SDS011;60105;54.956;73.412;2023-03-31T12:35:20;20.17;;;5.88;;
72201;SDS011;60105;54.956;73.412;2023-03-31T12:45:12;13.17;;;4.37;;
72201;SDS011;60105;54.956;73.412;2023-03-31T12:55:49;9.98;;;3.65;;
72201;SDS011;60105;54.956;73.412;2023-03-31T12:59:15;6.17;;;3.00;;
72201;SDS011;60105;54.956;73.412;2023-03-31T13:02:22;10.77;;;5.18;;
72201;SDS011;60105;54.956;73.412;2023-03-31T13:08:52;14.10;;;5.30;;
72201;SDS011;60105;54.956;73.412;2023-03-31T13:11:57;8.07;;;4.25;;
72201;SDS011;60105;54.956;73.412;2023-03-31T13:15:11;17.90;;;5.57;;
72201;SDS011;60105;54.956;73.412;2023-03-31T13:18:53;17.33;;;5.22;;
72201;SDS011;60105;54.956;73.412;2023-03-31T13:21:57;13.98;;;6.38;;
72201;SDS011;60105;54.956;73.412;2023-03-31T13:32:25;17.05;;;5.60;;
72201;SDS011;60105;54.956;73.412;2023-03-31T13:35:37;13.50;;;5.97;;
72201;SDS011;60105;54.956;73.412;2023-03-31T13:52:03;15.07;;;7.68;;
72201;SDS011;60105;54.956;73.412;2023-03-31T14:02:03;21.30;;;6.47;;
72201;SDS011;60105;54.956;73.412;2023-03-31T14:05:18;13.67;;;7.03;;
72201;SDS011;60105;54.956;73.412;2023-03-31T14:08:32;14.23;;;7.23;;
72201;SDS011;60105;54.956;73.412;2023-03-31T14:11:42;24.95;;;9.35;;
72201;SDS011;60105;54.956;73.412;2023-03-31T14:14:43;21.83;;;9.70;;
72201;SDS011;60105;54.956;73.412;2023-03-31T14:17:45;21.70;;;10.35;;
72201;SDS011;60105;54.956;73.412;2023-03-31T14:34:33;19.77;;;8.60;;
72201;SDS011;60105;54.956;73.412;2023-03-31T14:37:53;21.67;;;9.85;;
72201;SDS011;60105;54.956;73.412;2023-03-31T14:40:56;34.63;;;11.70;;
72201;SDS011;60105;54.956;73.412;2023-03-31T14:44:00;24.63;;;10.98;;
72201;SDS011;60105;54.956;73.412;2023-03-31T14:47:04;26.48;;;13.68;;
72201;SDS011;60105;54.956;73.412;2023-03-31T14:50:16;27.43;;;12.70;;
72201;SDS011;60105;54.956;73.412;2023-03-31T14:57:00;23.05;;;9.93;;
72201;SDS011;60105;54.956;73.412;2023-03-31T15:00:03;34.50;;;11.73;;
72201;SDS011;60105;54.956;73.412;2023-03-31T15:03:52;33.67;;;12.30;;
72201;SDS011;60105;54.956;73.412;2023-03-31T15:06:55;35.33;;;13.88;;
72201;SDS011;60105;54.956;73.412;2023-03-31T15:09:59;33.00;;;14.47;;
72201;SDS011;60105;54.956;73.412;2023-03-31T15:13:39;39.05;;;16.08;;
72201;SDS011;60105;54.956;73.412;2023-03-31T15:16:41;48.87;;;16.63;;
72201;SDS011;60105;54.956;73.412;2023-03-31T15:19:42;35.97;;;14.82;;
72201;SDS011;60105;54.956;73.412;2023-03-31T15:22:43;30.63;;;12.80;;
72201;SDS011;60105;54.956;73.412;2023-03-31T15:25:46;32.65;;;13.55;;
72201;SDS011;60105;54.956;73.412;2023-03-31T15:32:15;37.20;;;13.53;;
72201;SDS011;60105;54.956;73.412;2023-03-31T15:35:39;35.75;;;14.52;;
72201;SDS011;60105;54.956;73.412;2023-03-31T15:38:45;35.72;;;11.65;;
72201;SDS011;60105;54.956;73.412;2023-03-31T15:41:47;32.80;;;12.23;;
72201;SDS011;60105;54.956;73.412;2023-03-31T15:44:53;22.98;;;11.68;;
72201;SDS011;60105;54.956;73.412;2023-03-31T15:47:57;25.67;;;11.40;;
72201;SDS011;60105;54.956;73.412;2023-03-31T15:51:19;22.80;;;11.30;;
72201;SDS011;60105;54.956;73.412;2023-03-31T15:54:48;29.77;;;13.70;;
72201;SDS011;60105;54.956;73.412;2023-03-31T15:57:49;33.90;;;13.27;;
72201;SDS011;60105;54.956;73.412;2023-03-31T16:00:51;31.13;;;13.70;;
72201;SDS011;60105;54.956;73.412;2023-03-31T16:03:56;24.55;;;12.35;;
72201;SDS011;60105;54.956;73.412;2023-03-31T16:07:15;34.10;;;14.30;;
72201;SDS011;60105;54.956;73.412;2023-03-31T16:10:22;37.17;;;13.80;;
72201;SDS011;60105;54.956;73.412;2023-03-31T16:13:54;33.67;;;13.27;;
72201;SDS011;60105;54.956;73.412;2023-03-31T16:17:01;25.80;;;12.32;;
72201;SDS011;60105;54.956;73.412;2023-03-31T16:20:18;30.27;;;12.80;;
72201;SDS011;60105;54.956;73.412;2023-03-31T16:26:59;24.77;;;11.48;;
72201;SDS011;60105;54.956;73.412;2023-03-31T16:30:07;25.20;;;12.20;;
72201;SDS011;60105;54.956;73.412;2023-03-31T16:33:54;27.75;;;11.60;;
72201;SDS011;60105;54.956;73.412;2023-03-31T16:36:56;21.60;;;10.23;;
72201;SDS011;60105;54.956;73.412;2023-03-31T16:39:57;23.20;;;11.32;;
72201;SDS011;60105;54.956;73.412;2023-03-31T16:43:06;29.33;;;10.50;;
72201;SDS011;60105;54.956;73.412;2023-03-31T16:46:11;28.33;;;11.30;;
72201;SDS011;60105;54.956;73.412;2023-03-31T16:49:13;14.43;;;8.33;;
72201;SDS011;60105;54.956;73.412;2023-03-31T16:52:14;21.83;;;9.25;;
72201;SDS011;60105;54.956;73.412;2023-03-31T16:55:15;22.73;;;9.63;;
72201;SDS011;60105;54.956;73.412;2023-03-31T16:58:52;19.15;;;7.25;;
72201;SDS011;60105;54.956;73.412;2023-03-31T17:01:54;12.20;;;6.70;;
72201;SDS011;60105;54.956;73.412;2023-03-31T17:04:55;11.70;;;5.63;;
72201;SDS011;60105;54.956;73.412;2023-03-31T17:07:57;9.82;;;5.53;;
72201;SDS011;60105;54.956;73.412;2023-03-31T17:11:11;14.65;;;6.32;;
72201;SDS011;60105;54.956;73.412;2023-03-31T17:14:14;13.90;;;7.33;;
72201;SDS011;60105;54.956;73.412;2023-03-31T17:17:15;13.20;;;7.55;;
72201;SDS011;60105;54.956;73.412;2023-03-31T17:20:16;20.08;;;8.65;;
72201;SDS011;60105;54.956;73.412;2023-03-31T17:23:52;15.60;;;7.30;;
72201;SDS011;60105;54.956;73.412;2023-03-31T17:26:54;19.17;;;9.25;;
72201;SDS011;60105;54.956;73.412;2023-03-31T17:29:55;25.67;;;9.85;;
72201;SDS011;60105;54.956;73.412;2023-03-31T17:32:56;19.90;;;10.02;;
72201;SDS011;60105;54.956;73.412;2023-03-31T17:35:58;22.83;;;8.43;;
72201;SDS011;60105;54.956;73.412;2023-03-31T17:38:59;21.77;;;8.53;;
72201;SDS011;60105;54.956;73.412;2023-03-31T17:42:02;24.85;;;10.13;;
72201;SDS011;60105;54.956;73.412;2023-03-31T17:45:04;16.07;;;7.37;;
72201;SDS011;60105;54.956;73.412;2023-03-31T17:48:05;13.73;;;7.55;;
72201;SDS011;60105;54.956;73.412;2023-03-31T17:51:10;13.87;;;7.50;;
72201;SDS011;60105;54.956;73.412;2023-03-31T17:54:14;15.68;;;7.35;;
72201;SDS011;60105;54.956;73.412;2023-03-31T17:57:16;15.70;;;6.72;;
72201;SDS011;60105;54.956;73.412;2023-03-31T18:00:17;15.67;;;6.90;;
72201;SDS011;60105;54.956;73.412;2023-03-31T18:03:55;12.82;;;6.95;;
72201;SDS011;60105;54.956;73.412;2023-03-31T18:06:57;19.43;;;8.20;;
72201;SDS011;60105;54.956;73.412;2023-03-31T18:10:03;13.88;;;6.57;;
72201;SDS011;60105;54.956;73.412;2023-03-31T18:13:05;13.88;;;6.05;;
72201;SDS011;60105;54.956;73.412;2023-03-31T18:16:07;19.23;;;7.40;;
72201;SDS011;60105;54.956;73.412;2023-03-31T18:19:09;14.35;;;7.53;;
72201;SDS011;60105;54.956;73.412;2023-03-31T18:22:10;12.57;;;6.28;;
72201;SDS011;60105;54.956;73.412;2023-03-31T18:25:12;11.55;;;6.28;;
72201;SDS011;60105;54.956;73.412;2023-03-31T18:28:52;14.18;;;6.53;;
72201;SDS011;60105;54.956;73.412;2023-03-31T18:31:54;12.55;;;6.10;;
72201;SDS011;60105;54.956;73.412;2023-03-31T18:34:55;9.68;;;5.10;;
72201;SDS011;60105;54.956;73.412;2023-03-31T18:37:57;11.90;;;5.57;;
72201;SDS011;60105;54.956;73.412;2023-03-31T18:40:58;10.45;;;6.00;;
72201;SDS011;60105;54.956;73.412;2023-03-31T18:44:00;15.03;;;6.37;;
72201;SDS011;60105;54.956;73.412;2023-03-31T18:47:01;17.23;;;7.13;;
72201;SDS011;60105;54.956;73.412;2023-03-31T18:50:02;13.90;;;6.40;;
72201;SDS011;60105;54.956;73.412;2023-03-31T18:53:52;14.73;;;6.28;;
72201;SDS011;60105;54.956;73.412;2023-03-31T18:56:53;15.38;;;6.28;;
72201;SDS011;60105;54.956;73.412;2023-03-31T18:59:55;12.90;;;6.70;;
72201;SDS011;60105;54.956;73.412;2023-03-31T19:03:01;17.75;;;7.35;;
72201;SDS011;60105;54.956;73.412;2023-03-31T19:06:04;19.73;;;7.47;;
72201;SDS011;60105;54.956;73.412;2023-03-31T19:09:09;21.60;;;6.90;;
72201;SDS011;60105;54.956;73.412;2023-03-31T19:12:21;14.32;;;6.88;;
72201;SDS011;60105;54.956;73.412;2023-03-31T19:15:22;17.70;;;7.85;;
72201;SDS011;60105;54.956;73.412;2023-03-31T19:18:52;12.57;;;6.15;;
72201;SDS011;60105;54.956;73.412;2023-03-31T19:21:54;16.15;;;7.20;;
72201;SDS011;60105;54.956;73.412;2023-03-31T19:24:56;14.90;;;6.37;;
72201;SDS011;60105;54.956;73.412;2023-03-31T19:27:57;18.40;;;6.57;;
72201;SDS011;60105;54.956;73.412;2023-03-31T19:31:01;14.10;;;6.30;;
72201;SDS011;60105;54.956;73.412;2023-03-31T19:34:08;16.47;;;6.20;;
72201;SDS011;60105;54.956;73.412;2023-03-31T19:37:23;15.07;;;6.32;;
72201;SDS011;60105;54.956;73.412;2023-03-31T19:40:25;10.73;;;5.57;;
72201;SDS011;60105;54.956;73.412;2023-03-31T19:43:53;9.40;;;5.60;;
72201;SDS011;60105;54.956;73.412;2023-03-31T19:46:55;12.38;;;5.78;;
72201;SDS011;60105;54.956;73.412;2023-03-31T19:49:58;12.03;;;5.57;;
72201;SDS011;60105;54.956;73.412;2023-03-31T19:52:59;9.70;;;5.38;;
72201;SDS011;60105;54.956;73.412;2023-03-31T19:56:01;9.20;;;5.13;;
72201;SDS011;60105;54.956;73.412;2023-03-31T19:59:06;8.37;;;4.40;;
72201;SDS011;60105;54.956;73.412;2023-03-31T20:02:12;8.68;;;4.22;;
72201;SDS011;60105;54.956;73.412;2023-03-31T20:05:14;6.07;;;3.77;;
72201;SDS011;60105;54.956;73.412;2023-03-31T20:08:35;9.38;;;3.50;;
72201;SDS011;60105;54.956;73.412;2023-03-31T20:11:37;7.90;;;3.40;;
72201;SDS011;60105;54.956;73.412;2023-03-31T20:14:39;8.25;;;3.38;;
72201;SDS011;60105;54.956;73.412;2023-03-31T20:17:50;9.82;;;4.30;;
72201;SDS011;60105;54.956;73.412;2023-03-31T20:24:09;8.07;;;3.37;;
72201;SDS011;60105;54.956;73.412;2023-03-31T20:27:15;10.85;;;4.00;;
72201;SDS011;60105;54.956;73.412;2023-03-31T20:30:17;11.83;;;3.43;;
72201;SDS011;60105;54.956;73.412;2023-03-31T20:33:53;4.70;;;3.13;;
72201;SDS011;60105;54.956;73.412;2023-03-31T20:36:55;4.90;;;3.08;;
72201;SDS011;60105;54.956;73.412;2023-03-31T20:39:57;7.75;;;4.28;;
72201;SDS011;60105;54.956;73.412;2023-03-31T20:42:59;7.88;;;3.10;;
72201;SDS011;60105;54.956;73.412;2023-03-31T20:46:00;8.17;;;3.33;;
72201;SDS011;60105;54.956;73.412;2023-03-31T20:49:03;4.67;;;3.43;;
72201;SDS011;60105;54.956;73.412;2023-03-31T20:52:06;4.97;;;3.33;;
72201;SDS011;60105;54.956;73.412;2023-03-31T20:55:08;8.97;;;3.80;;
72201;SDS011;60105;54.956;73.412;2023-03-31T20:58:53;5.40;;;2.79;;
72201;SDS011;60105;54.956;73.412;2023-03-31T21:01:54;8.53;;;3.93;;
72201;SDS011;60105;54.956;73.412;2023-03-31T21:05:06;7.32;;;3.40;;
72201;SDS011;60105;54.956;73.412;2023-03-31T21:08:21;7.43;;;3.34;;
72201;SDS011;60105;54.956;73.412;2023-03-31T21:11:22;5.90;;;3.17;;
72201;SDS011;60105;54.956;73.412;2023-03-31T21:14:25;11.88;;;3.55;;
72201;SDS011;60105;54.956;73.412;2023-03-31T21:17:36;8.70;;;3.10;;
72201;SDS011;60105;54.956;73.412;2023-03-31T21:20:37;6.50;;;4.03;;
72201;SDS011;60105;54.956;73.412;2023-03-31T21:27:04;9.60;;;3.83;;
72201;SDS011;60105;54.956;73.412;2023-03-31T21:30:05;5.30;;;3.00;;
72201;SDS011;60105;54.956;73.412;2023-03-31T21:33:52;6.82;;;3.65;;
72201;SDS011;60105;54.956;73.412;2023-03-31T21:36:55;8.00;;;2.97;;
72201;SDS011;60105;54.956;73.412;2023-03-31T21:39:57;14.32;;;3.80;;
72201;SDS011;60105;54.956;73.412;2023-03-31T21:42:58;9.27;;;3.50;;
72201;SDS011;60105;54.956;73.412;2023-03-31T21:46:06;6.33;;;3.17;;
72201;SDS011;60105;54.956;73.412;2023-03-31T21:49:12;6.90;;;3.03;;
72201;SDS011;60105;54.956;73.412;2023-03-31T21:52:13;10.88;;;3.03;;
72201;SDS011;60105;54.956;73.412;2023-03-31T21:55:20;9.13;;;3.47;;
72201;SDS011;60105;54.956;73.412;2023-03-31T22:01:53;5.25;;;3.58;;
72201;SDS011;60105;54.956;73.412;2023-03-31T22:04:54;7.30;;;3.40;;
72201;SDS011;60105;54.956;73.412;2023-03-31T22:07:56;5.85;;;3.83;;